East Islip, New York
Current Conditions -  °F | °C
As of 1:56 PM on Friday 28 Nov 2014 (Local Time) from KISP Reporting Station
Broken Clouds Broken Clouds  
Wind Chill: 27°   Ceiling: 4100
Heat Index: 37°   Visibility: 10mi
Dew Point: 19°   Wind: 17mph
Humidity: 48%   Direction: 300°WNW
Pressure: 30.11"   Gusts: 25mph
Location:  40.73°N, 73.19°W
Report Text: KISP 281856Z 30015G22KT 10SM BKN041 03/M07 A3011 RMK AO2 SLP196 T00281072
Loading
Personal Weather Stations






























Interactive Weather Map New forecast layout! Learn more

10-Day Weather Forecast

Advertisements
Track Severe Weather on mobile